Terminal Aerodrome Forecast
Issued by NWS

Home | Current Version | Previous Version | Text Only | Print | Product List | Glossary On
Versions: 1 2 3 4 5 6 7 8 9 10 11 12 13 14 15 16 17 18 19
844
FTUS45 KFGZ 231125
TAFSEZ
TAF
KSEZ 231125Z 2312/2412 20010KT P6SM SCT050
     FM231800 23010G20KT P6SM FEW050
     FM240200 VRB06KT P6SM SKC=

USA.gov is the U.S. government's official web portal to all federal, state and local government web resources and services.